Dubbo Cooreena Rd, New South Wales

6:20 AM AEST on September 02, 2015 (GMT +1000)
West Dubbo | | Change Station
CLOSE
Current Station
Personal Weather Station
Location: Dubbo, NEW SOUTH WALES
Elevation: 951 ft
Nearby Weather Stations

Elev 951 ft 32.24 °S, 148.59 °E | Updated 25 seconds ago

Overcast
Overcast
40.8 °F
Feels Like 41 °F
N
0.0
Wind Variable Wind from North
Gusts 1.0 mph

Today
High -- | Low -- °F
--% Chance of Precip.
Yesterday
High -- | Low -- °F
Precip. -- in
6:22 AM 5:49 PM
Waning Gibbous, 86% visible
Pressure 30.01 in
Visibility 6.2 miles
Clouds Overcast 11500 ft
Windchill 41 °F
Dew Point 39 °F
Humidity 92%
Rainfall 0.00 in
Snow Depth Not available.
UV 0 out of 12
Pollen Not available.
Air Quality Not available.
Flu Activity Not available.
METAR YSDU 012000Z AUTO 06003KT 9999 // OVC115 04/03 Q1016
Pressure 30.01 in
Visibility 6.2 miles
Clouds Overcast 11500 ft
Windchill 41 °F
Dew Point 39 °F
Humidity 92%
Rainfall 0.00 in
Snow Depth Not available.
UV 0 out of 12
Pollen Not available.
Air Quality Not available.
Flu Activity Not available.
METAR YSDU 012000Z AUTO 06003KT 9999 // OVC115 04/03 Q1016

10-Day Weather Forecast

×

Almanac

Astronomy

Sep. 02, 2015 Rise Set
Actual Time
Civil Twilight
Nautical Twilight
Astronomical Twilight
Moon
Length of Visible Light
Length of Day
Tomorrow will be .
, % of the Moon is Illuminated

Today's Extremes

Country Highs Country Lows

Community

WunderPhotos

Upload Photos

1,851,605 photos uploaded!

WunderBlogs® & News

Nearby

Air Quality

  Air Quality AQ Index Pollutant
Not available.

Snow Depth

Station Depth Elevation

Earthquake Activity

City Distance Mag. Time & Date
Minimum magnitude displayed is 2.5.

Coastal Water Temperatures

Place Temperature

Stations

Nearby Weather Stations

Station Location Temp. Windchill Dew Point Humidity Wind Precip. Elev Updated Type